createdAt,value
2022-08-17T00:00:43.725Z,22.00
2022-08-17T00:03:25.624Z,21.80
2022-08-17T00:06:00.049Z,21.70
2022-08-17T00:08:34.944Z,21.70
2022-08-17T00:11:09.245Z,21.70
2022-08-17T00:13:48.655Z,21.80
2022-08-17T00:16:55.430Z,21.90
2022-08-17T00:19:18.133Z,22.00
2022-08-17T00:22:31.863Z,22.00
2022-08-17T00:24:40.919Z,22.10
2022-08-17T00:27:11.248Z,22.00
2022-08-17T00:29:46.157Z,21.90
2022-08-17T00:33:14.245Z,21.90
2022-08-17T00:35:13.494Z,21.80
2022-08-17T00:37:44.063Z,21.90
2022-08-17T00:40:17.574Z,21.90
2022-08-17T00:42:50.309Z,21.80
2022-08-17T00:45:24.072Z,21.90
2022-08-17T00:47:54.330Z,21.90
2022-08-17T00:50:24.813Z,22.00
2022-08-17T00:53:00.374Z,22.00
2022-08-17T00:55:31.492Z,22.10
2022-08-17T00:58:08.439Z,22.10
2022-08-17T01:00:48.677Z,22.00
2022-08-17T01:03:25.410Z,21.90
2022-08-17T01:06:01.547Z,21.90
2022-08-17T01:08:34.709Z,21.80
2022-08-17T01:11:06.189Z,21.80
2022-08-17T01:13:41.843Z,21.80
2022-08-17T01:16:21.188Z,21.90
2022-08-17T01:18:59.951Z,21.90
2022-08-17T01:21:44.340Z,21.80
2022-08-17T01:24:18.367Z,21.70
2022-08-17T01:26:49.869Z,21.60
2022-08-17T01:29:21.900Z,21.60
2022-08-17T01:31:58.559Z,21.50
2022-08-17T01:34:43.492Z,21.50
2022-08-17T01:37:21.971Z,21.60
2022-08-17T01:40:00.556Z,21.60
2022-08-17T01:42:40.467Z,21.60
2022-08-17T01:45:20.312Z,21.80
2022-08-17T01:47:52.770Z,21.80
2022-08-17T01:50:27.988Z,21.80
2022-08-17T01:53:04.942Z,21.80
2022-08-17T01:55:58.573Z,21.70
2022-08-17T01:58:29.016Z,21.70
2022-08-17T02:01:01.428Z,21.70
2022-08-17T02:03:34.454Z,21.60
2022-08-17T02:06:11.988Z,21.60
2022-08-17T02:09:03.019Z,21.50
2022-08-17T02:11:40.268Z,21.40
2022-08-17T02:14:13.313Z,21.20
2022-08-17T02:16:45.344Z,21.10
2022-08-17T02:19:18.957Z,21.00
2022-08-17T02:21:53.840Z,21.00
2022-08-17T02:25:00.288Z,21.00
2022-08-17T02:27:21.795Z,21.00
2022-08-17T02:29:52.072Z,20.90
2022-08-17T02:32:29.521Z,21.00
2022-08-17T02:35:00.406Z,20.80
2022-08-17T02:37:32.613Z,20.80
2022-08-17T02:40:03.009Z,20.60
2022-08-17T02:42:41.289Z,20.30
2022-08-17T02:45:18.082Z,20.30
2022-08-17T02:47:50.920Z,20.30
2022-08-17T02:50:24.921Z,20.30
2022-08-17T02:53:02.268Z,20.40
2022-08-17T02:55:37.425Z,20.40
2022-08-17T02:58:13.592Z,20.50
2022-08-17T03:00:49.032Z,20.50
2022-08-17T03:03:21.456Z,20.50
2022-08-17T03:05:54.287Z,20.50
2022-08-17T03:08:25.640Z,20.40
2022-08-17T03:10:56.186Z,20.50
2022-08-17T03:13:29.655Z,20.60
2022-08-17T03:15:59.956Z,20.80
2022-08-17T03:18:30.699Z,21.00
2022-08-17T03:21:05.131Z,21.20
2022-08-17T03:23:41.021Z,21.30
2022-08-17T03:26:13.487Z,21.40
2022-08-17T03:28:51.416Z,21.50
2022-08-17T03:31:21.925Z,21.50
2022-08-17T03:33:52.157Z,21.50
2022-08-17T03:36:22.419Z,21.50
2022-08-17T03:38:52.612Z,21.60
2022-08-17T03:41:23.686Z,21.50
2022-08-17T03:43:58.955Z,21.60
2022-08-17T03:46:42.874Z,21.60
2022-08-17T03:49:25.521Z,21.60
2022-08-17T03:52:09.736Z,21.60
2022-08-17T03:54:52.574Z,21.60
2022-08-17T03:57:22.940Z,21.50
2022-08-17T03:59:58.093Z,21.50
2022-08-17T04:02:34.114Z,21.60
2022-08-17T04:05:05.073Z,21.50
2022-08-17T04:07:35.268Z,21.50
2022-08-17T04:10:05.483Z,21.50
2022-08-17T04:12:49.329Z,21.50
2022-08-17T04:15:22.408Z,21.50
2022-08-17T04:17:59.965Z,21.50
2022-08-17T04:20:31.455Z,21.60
2022-08-17T04:23:06.998Z,21.60
2022-08-17T04:25:41.801Z,21.60
2022-08-17T04:28:16.327Z,21.70
2022-08-17T04:30:51.353Z,21.70
2022-08-17T04:33:25.488Z,21.70
2022-08-17T04:36:00.233Z,21.60
2022-08-17T04:38:33.436Z,21.70
2022-08-17T04:41:18.025Z,21.70
2022-08-17T04:43:50.732Z,21.70
2022-08-17T04:46:28.414Z,21.80
2022-08-17T04:49:00.444Z,21.80
2022-08-17T04:51:37.104Z,21.80
2022-08-17T04:54:11.728Z,21.70
2022-08-17T04:56:42.848Z,21.70
2022-08-17T04:59:16.763Z,21.80
2022-08-17T05:01:54.749Z,21.70
2022-08-17T05:04:34.229Z,21.70
2022-08-17T05:07:05.772Z,21.90
2022-08-17T05:09:36.285Z,21.90
2022-08-17T05:12:10.112Z,21.80
2022-08-17T05:14:42.389Z,21.90
2022-08-17T05:17:17.080Z,22.00
2022-08-17T05:19:51.787Z,22.10
2022-08-17T05:22:22.617Z,22.20
2022-08-17T05:24:53.816Z,22.30
2022-08-17T05:27:29.282Z,22.30
2022-08-17T05:30:07.880Z,22.40
2022-08-17T05:32:40.876Z,22.50
2022-08-17T05:35:12.101Z,22.50
2022-08-17T05:37:44.643Z,22.70
2022-08-17T05:40:16.290Z,22.70
2022-08-17T05:42:46.687Z,22.50
2022-08-17T05:45:42.802Z,22.40
2022-08-17T05:48:13.225Z,22.40
2022-08-17T05:51:02.912Z,22.70
2022-08-17T05:53:46.533Z,22.80
2022-08-17T05:56:31.323Z,22.60
2022-08-17T05:59:17.600Z,22.50
2022-08-17T06:02:14.148Z,22.60
2022-08-17T06:05:11.989Z,22.80
2022-08-17T06:07:54.220Z,22.80
2022-08-17T06:10:37.673Z,22.70
2022-08-17T06:13:35.401Z,22.80
2022-08-17T06:16:32.880Z,22.90
2022-08-17T06:19:14.273Z,23.10
2022-08-17T06:21:53.539Z,23.40
2022-08-17T06:24:39.813Z,23.80
2022-08-17T06:27:19.464Z,24.50
2022-08-17T06:30:00.840Z,25.00
2022-08-17T06:32:32.713Z,25.40
2022-08-17T06:35:07.033Z,25.40
2022-08-17T06:38:04.368Z,25.30
2022-08-17T06:40:59.225Z,25.30
2022-08-17T06:44:10.030Z,25.40
2022-08-17T06:46:49.205Z,25.50
2022-08-17T06:49:29.188Z,26.00
2022-08-17T06:52:43.368Z,25.90
2022-08-17T06:55:20.251Z,25.80
2022-08-17T06:57:55.328Z,25.70
2022-08-17T07:00:33.648Z,25.80
2022-08-17T07:03:20.993Z,26.10
2022-08-17T07:05:57.279Z,26.70
2022-08-17T07:08:35.380Z,27.00
2022-08-17T07:11:15.830Z,27.30
2022-08-17T07:13:57.472Z,27.20
2022-08-17T07:16:36.426Z,26.80
2022-08-17T07:19:10.964Z,26.40
2022-08-17T07:21:56.679Z,26.10
2022-08-17T07:24:43.338Z,26.00
2022-08-17T07:27:21.403Z,26.00
2022-08-17T07:29:58.827Z,25.70
2022-08-17T07:32:34.376Z,25.40
2022-08-17T07:35:21.145Z,25.20
2022-08-17T07:37:55.922Z,25.00
2022-08-17T07:40:34.287Z,24.70
2022-08-17T07:43:26.664Z,24.50
2022-08-17T07:46:38.228Z,24.60
2022-08-17T07:49:38.883Z,24.80
2022-08-17T07:52:24.255Z,25.00
2022-08-17T07:55:09.567Z,25.00
2022-08-17T07:57:44.489Z,24.90
2022-08-17T08:00:32.161Z,24.70
2022-08-17T08:03:29.411Z,24.70
2022-08-17T08:06:04.256Z,24.60
2022-08-17T08:08:43.518Z,24.50
2022-08-17T08:11:30.801Z,24.40
2022-08-17T08:14:29.364Z,24.20
2022-08-17T08:17:05.463Z,24.20
2022-08-17T08:19:37.770Z,24.30
2022-08-17T08:22:16.003Z,24.40
2022-08-17T08:25:18.213Z,24.40
2022-08-17T08:28:04.006Z,24.40
2022-08-17T08:30:43.417Z,24.30
2022-08-17T08:33:39.539Z,24.30
2022-08-17T08:37:12.982Z,24.20
2022-08-17T08:39:27.637Z,24.10
2022-08-17T08:42:11.568Z,24.00
2022-08-17T08:44:59.797Z,23.90
2022-08-17T08:48:23.038Z,23.90
2022-08-17T08:51:10.841Z,23.80
2022-08-17T08:54:00.941Z,23.70
2022-08-17T08:57:11.896Z,23.70
2022-08-17T08:59:58.058Z,23.90
2022-08-17T09:03:07.452Z,23.80
2022-08-17T09:06:37.744Z,23.70
2022-08-17T09:09:16.954Z,23.70
2022-08-17T09:12:02.560Z,23.50
2022-08-17T09:14:47.082Z,23.30
2022-08-17T09:17:24.023Z,23.20
2022-08-17T09:20:04.388Z,23.10
2022-08-17T09:22:44.632Z,23.10
2022-08-17T09:25:20.525Z,23.10
2022-08-17T09:28:00.635Z,23.20
2022-08-17T09:30:46.079Z,23.10
2022-08-17T09:33:23.249Z,22.80
2022-08-17T09:36:01.835Z,22.70
2022-08-17T09:38:51.587Z,22.80
2022-08-17T09:41:31.888Z,22.80
2022-08-17T09:44:23.188Z,22.90
2022-08-17T09:47:02.241Z,23.00
2022-08-17T09:49:42.547Z,23.40
2022-08-17T09:52:22.304Z,23.90
2022-08-17T09:55:00.162Z,24.70
2022-08-17T09:58:01.919Z,25.30
2022-08-17T10:00:46.878Z,26.00
2022-08-17T10:03:58.459Z,26.30
2022-08-17T10:06:37.908Z,25.70
2022-08-17T10:09:19.398Z,25.40
2022-08-17T10:12:13.671Z,25.50
2022-08-17T10:15:10.648Z,25.90
2022-08-17T10:18:03.929Z,26.40
2022-08-17T10:20:45.462Z,26.50
2022-08-17T10:23:48.924Z,27.40
2022-08-17T10:26:50.234Z,27.80
2022-08-17T10:29:47.526Z,28.20
2022-08-17T10:32:32.710Z,28.70
2022-08-17T10:35:25.694Z,29.30
2022-08-17T10:38:46.217Z,30.10
2022-08-17T10:41:40.395Z,30.80
2022-08-17T10:44:39.851Z,31.70
2022-08-17T10:47:17.617Z,31.80
2022-08-17T10:49:54.005Z,30.80
2022-08-17T10:52:55.266Z,30.30
2022-08-17T10:55:25.857Z,29.50
2022-08-17T10:58:24.758Z,29.10
2022-08-17T11:01:03.847Z,28.60
2022-08-17T11:03:36.886Z,27.60
2022-08-17T11:06:23.342Z,27.40
2022-08-17T11:09:30.335Z,27.30
2022-08-17T11:12:18.762Z,27.50
2022-08-17T11:15:07.229Z,27.80
2022-08-17T11:18:04.868Z,27.70
2022-08-17T11:21:29.317Z,27.10
2022-08-17T11:24:21.214Z,26.90
2022-08-17T11:27:12.324Z,27.10
2022-08-17T11:30:01.424Z,27.40
2022-08-17T11:32:47.079Z,27.80
2022-08-17T11:35:57.340Z,27.40
2022-08-17T11:38:48.636Z,28.00
2022-08-17T11:41:32.497Z,28.90
2022-08-17T11:44:42.263Z,29.20
2022-08-17T11:48:09.061Z,28.80
2022-08-17T11:51:05.392Z,28.80
2022-08-17T11:54:32.160Z,28.70
2022-08-17T11:58:00.392Z,28.70
2022-08-17T12:01:01.323Z,28.70
2022-08-17T12:03:58.941Z,28.50
2022-08-17T12:06:51.890Z,28.90
2022-08-17T12:09:27.646Z,28.90
2022-08-17T12:12:13.780Z,28.90
2022-08-17T12:15:12.939Z,29.10
2022-08-17T12:17:52.871Z,29.10
2022-08-17T12:20:30.624Z,29.00
2022-08-17T12:23:11.765Z,29.30
2022-08-17T12:25:50.767Z,29.30
2022-08-17T12:28:31.958Z,28.70
2022-08-17T12:31:10.802Z,28.90
2022-08-17T12:33:47.431Z,28.60
2022-08-17T12:36:24.656Z,28.60
2022-08-17T12:39:13.955Z,29.10
2022-08-17T12:41:50.218Z,28.90
2022-08-17T12:44:24.666Z,29.00
2022-08-17T12:47:04.841Z,29.10
2022-08-17T12:49:39.974Z,29.00
2022-08-17T12:52:18.286Z,29.00
2022-08-17T12:55:00.439Z,28.70
2022-08-17T12:57:36.860Z,28.60
2022-08-17T13:00:17.925Z,28.80
2022-08-17T13:02:59.063Z,28.80
2022-08-17T13:05:34.828Z,28.90
2022-08-17T13:08:20.275Z,29.20
2022-08-17T13:10:59.994Z,29.00
2022-08-17T13:13:34.119Z,28.90
2022-08-17T13:16:10.420Z,28.80
2022-08-17T13:18:48.029Z,28.70
2022-08-17T13:21:33.206Z,28.70
2022-08-17T13:24:08.540Z,28.60
2022-08-17T13:26:44.105Z,28.10
2022-08-17T13:29:28.027Z,28.10
2022-08-17T13:32:19.926Z,28.00
2022-08-17T13:35:13.797Z,28.00
2022-08-17T13:38:04.055Z,27.90
2022-08-17T13:40:49.663Z,27.70
2022-08-17T13:43:50.671Z,27.70
2022-08-17T13:46:24.831Z,27.60
2022-08-17T13:49:05.484Z,27.60
2022-08-17T13:51:53.725Z,27.60
2022-08-17T13:54:32.569Z,27.30
2022-08-17T13:57:07.946Z,27.30
2022-08-17T13:59:53.225Z,27.40
2022-08-17T14:02:28.051Z,27.30
2022-08-17T14:05:02.083Z,27.00
2022-08-17T14:07:44.859Z,27.00
2022-08-17T14:10:20.790Z,26.90
2022-08-17T14:12:51.337Z,26.90
2022-08-17T14:15:55.539Z,27.10
2022-08-17T14:18:17.871Z,27.20
2022-08-17T14:20:48.277Z,27.20
2022-08-17T14:23:22.514Z,27.10
2022-08-17T14:25:52.754Z,27.20
2022-08-17T14:28:24.204Z,27.40
2022-08-17T14:30:58.116Z,27.40
2022-08-17T14:33:28.344Z,27.30
2022-08-17T14:35:58.767Z,27.30
2022-08-17T14:38:31.710Z,27.60
2022-08-17T14:41:02.092Z,27.80
2022-08-17T14:43:32.464Z,28.10
2022-08-17T14:46:05.069Z,27.80
2022-08-17T14:48:38.614Z,27.50
2022-08-17T14:51:09.917Z,27.50
2022-08-17T14:53:45.988Z,27.50
2022-08-17T14:56:16.203Z,27.30
2022-08-17T14:58:46.480Z,27.20
2022-08-17T15:01:17.424Z,27.40
2022-08-17T15:03:47.774Z,27.40
2022-08-17T15:06:18.129Z,27.60
2022-08-17T15:08:51.051Z,27.90
2022-08-17T15:11:21.522Z,28.10
2022-08-17T15:13:52.373Z,28.00
2022-08-17T15:16:23.678Z,27.90
2022-08-17T15:18:54.027Z,27.80
2022-08-17T15:21:25.232Z,27.80
2022-08-17T15:23:58.307Z,27.70
2022-08-17T15:26:28.707Z,27.40
2022-08-17T15:28:59.041Z,27.40
2022-08-17T15:31:32.283Z,27.40
2022-08-17T15:34:05.329Z,27.50
2022-08-17T15:36:38.900Z,27.60
2022-08-17T15:39:20.767Z,27.60
2022-08-17T15:41:58.664Z,27.60
2022-08-17T15:44:32.623Z,27.70
2022-08-17T15:47:05.405Z,27.40
2022-08-17T15:49:35.664Z,27.50
2022-08-17T15:52:21.470Z,27.60
2022-08-17T15:54:58.752Z,27.80
2022-08-17T15:57:30.571Z,27.80
2022-08-17T16:00:01.091Z,27.90
2022-08-17T16:03:44.481Z,27.80
2022-08-17T16:05:28.197Z,27.70
2022-08-17T16:08:01.553Z,28.00
2022-08-17T16:10:37.176Z,28.00
2022-08-17T16:13:17.286Z,27.90
2022-08-17T16:15:57.173Z,27.80
2022-08-17T16:18:31.688Z,27.50
2022-08-17T16:21:25.329Z,27.20
2022-08-17T16:23:58.988Z,27.20
2022-08-17T16:26:33.721Z,27.40
2022-08-17T16:29:07.657Z,27.50
2022-08-17T16:31:38.863Z,27.50
2022-08-17T16:34:17.205Z,27.70
2022-08-17T16:36:51.679Z,27.60
2022-08-17T16:39:29.826Z,27.50
2022-08-17T16:42:03.121Z,27.50
2022-08-17T16:44:34.526Z,27.10
2022-08-17T16:47:06.636Z,27.00
2022-08-17T16:49:38.094Z,27.00
2022-08-17T16:52:13.213Z,27.00
2022-08-17T16:54:47.039Z,26.90
2022-08-17T16:57:20.932Z,26.80
2022-08-17T16:59:53.189Z,26.70
2022-08-17T17:02:34.676Z,26.90
2022-08-17T17:05:18.883Z,26.90
2022-08-17T17:08:12.906Z,26.90
2022-08-17T17:10:51.314Z,26.90
2022-08-17T17:13:33.841Z,26.80
2022-08-17T17:16:18.064Z,26.70
2022-08-17T17:19:12.053Z,26.60
2022-08-17T17:21:54.892Z,26.60
2022-08-17T17:24:38.960Z,26.60
2022-08-17T17:27:31.310Z,26.50
2022-08-17T17:30:15.667Z,26.40
2022-08-17T17:32:53.652Z,26.40
2022-08-17T17:35:33.832Z,26.20
2022-08-17T17:38:12.247Z,26.20
2022-08-17T17:40:49.487Z,26.10
2022-08-17T17:43:41.782Z,26.10
2022-08-17T17:46:27.333Z,26.10
2022-08-17T17:48:59.909Z,25.90
2022-08-17T17:52:06.806Z,25.80
2022-08-17T17:54:51.079Z,25.70
2022-08-17T17:57:41.950Z,25.70
2022-08-17T18:00:18.192Z,25.70
2022-08-17T18:03:15.197Z,25.50
2022-08-17T18:06:12.626Z,25.40
2022-08-17T18:09:19.306Z,25.30
2022-08-17T18:12:13.709Z,25.20
2022-08-17T18:15:13.165Z,25.10
2022-08-17T18:18:38.065Z,25.10
2022-08-17T18:21:16.627Z,25.00
2022-08-17T18:23:53.792Z,25.00
2022-08-17T18:26:54.113Z,25.00
2022-08-17T18:29:42.761Z,24.90
2022-08-17T18:32:32.028Z,24.80
2022-08-17T18:35:34.991Z,24.70
2022-08-17T18:38:30.529Z,24.60
2022-08-17T18:41:21.197Z,24.40
2022-08-17T18:44:04.985Z,24.30
2022-08-17T18:46:38.772Z,24.30
2022-08-17T18:49:27.998Z,24.10
2022-08-17T18:52:17.993Z,24.00
2022-08-17T18:55:14.643Z,24.10
2022-08-17T18:57:49.778Z,24.00
2022-08-17T19:00:37.259Z,23.90
2022-08-17T19:03:26.656Z,23.90
2022-08-17T19:06:17.737Z,23.90
2022-08-17T19:08:50.692Z,23.90
2022-08-17T19:11:30.209Z,23.80
2022-08-17T19:14:06.192Z,23.80
2022-08-17T19:16:49.734Z,23.80
2022-08-17T19:19:26.655Z,23.70
2022-08-17T19:22:09.562Z,23.70
2022-08-17T19:24:47.635Z,23.60
2022-08-17T19:27:24.668Z,23.40
2022-08-17T19:30:08.784Z,23.20
2022-08-17T19:32:41.341Z,23.10
2022-08-17T19:35:17.480Z,23.00
2022-08-17T19:38:13.282Z,23.00
2022-08-17T19:41:04.355Z,22.90
2022-08-17T19:44:19.528Z,22.90
2022-08-17T19:47:02.245Z,22.80
2022-08-17T19:49:52.429Z,22.80
2022-08-17T19:52:57.046Z,22.70
2022-08-17T19:55:46.366Z,22.70
2022-08-17T19:58:38.909Z,22.70
2022-08-17T20:01:20.445Z,22.70
2022-08-17T20:04:06.309Z,22.70
2022-08-17T20:06:45.846Z,22.70
2022-08-17T20:09:33.328Z,22.80
2022-08-17T20:12:11.907Z,22.70
2022-08-17T20:14:55.234Z,22.60
2022-08-17T20:17:33.139Z,22.50
2022-08-17T20:20:21.078Z,22.40
2022-08-17T20:23:02.561Z,22.40
2022-08-17T20:25:45.993Z,22.30
2022-08-17T20:28:28.090Z,22.30
2022-08-17T20:31:01.650Z,22.30
2022-08-17T20:33:39.055Z,22.30
2022-08-17T20:36:21.703Z,22.30
2022-08-17T20:38:56.795Z,22.30
2022-08-17T20:41:29.940Z,22.20
2022-08-17T20:44:08.456Z,22.20
2022-08-17T20:47:08.244Z,22.10
2022-08-17T20:49:59.293Z,22.10
2022-08-17T20:52:52.393Z,22.00
2022-08-17T20:56:01.184Z,21.90
2022-08-17T20:58:59.109Z,21.90
2022-08-17T21:01:43.343Z,21.90
2022-08-17T21:04:48.544Z,21.80
2022-08-17T21:07:33.080Z,21.70
2022-08-17T21:10:18.453Z,21.70
2022-08-17T21:12:57.758Z,21.50
2022-08-17T21:15:42.492Z,21.50
2022-08-17T21:18:26.082Z,21.40
2022-08-17T21:21:20.641Z,21.30
2022-08-17T21:24:26.157Z,21.20
2022-08-17T21:27:12.280Z,21.10
2022-08-17T21:30:14.774Z,21.00
2022-08-17T21:33:07.519Z,21.00
2022-08-17T21:35:58.719Z,21.00
2022-08-17T21:38:39.047Z,20.90
2022-08-17T21:41:09.621Z,20.80
2022-08-17T21:43:51.362Z,20.70
2022-08-17T21:46:34.508Z,20.80
2022-08-17T21:49:13.836Z,20.60
2022-08-17T21:51:54.332Z,20.60
2022-08-17T21:54:35.728Z,20.50
2022-08-17T21:57:18.329Z,20.60
2022-08-17T21:59:53.140Z,20.50
2022-08-17T22:02:29.684Z,20.60
2022-08-17T22:05:03.360Z,20.50
2022-08-17T22:07:46.519Z,20.50
2022-08-17T22:10:33.168Z,20.50
2022-08-17T22:13:17.008Z,20.50
2022-08-17T22:15:51.685Z,20.50
2022-08-17T22:18:30.239Z,20.50
2022-08-17T22:21:06.468Z,20.50
2022-08-17T22:23:57.915Z,20.50
2022-08-17T22:27:11.603Z,20.40
2022-08-17T22:29:57.970Z,20.30
2022-08-17T22:32:41.956Z,20.40
2022-08-17T22:35:35.390Z,20.40
2022-08-17T22:38:38.252Z,20.50
2022-08-17T22:41:34.803Z,20.60
2022-08-17T22:44:23.202Z,20.70
2022-08-17T22:47:02.168Z,20.70
2022-08-17T22:49:53.255Z,20.70
2022-08-17T22:52:36.059Z,20.60
2022-08-17T22:55:30.525Z,20.50
2022-08-17T22:58:14.113Z,20.40
2022-08-17T23:00:52.046Z,20.30
2022-08-17T23:03:25.941Z,20.20
2022-08-17T23:06:09.736Z,20.20
2022-08-17T23:08:48.441Z,20.00
2022-08-17T23:11:23.836Z,19.80
2022-08-17T23:14:15.705Z,19.80
2022-08-17T23:16:46.078Z,19.60
2022-08-17T23:19:19.412Z,19.60
2022-08-17T23:21:55.673Z,19.60
2022-08-17T23:24:30.970Z,19.60
2022-08-17T23:27:07.844Z,19.60
2022-08-17T23:29:42.149Z,19.60
2022-08-17T23:32:18.976Z,19.70
2022-08-17T23:34:50.909Z,19.60
2022-08-17T23:37:22.424Z,19.50
2022-08-17T23:39:52.709Z,19.40
2022-08-17T23:42:28.276Z,19.40
2022-08-17T23:44:58.481Z,19.40
2022-08-17T23:47:28.799Z,19.40
2022-08-17T23:49:58.939Z,19.40
2022-08-17T23:52:32.019Z,19.40
2022-08-17T23:55:02.556Z,19.40
2022-08-17T23:57:37.525Z,19.40
